sensor_id;sensor_type;location;lat;lon;timestamp;pressure;altitude;pressure_sealevel;temperature;humidity
2675;BME280;1347;42.122;24.746;2022-10-31T00:00:14;99812.88;;;16.40;56.84
2675;BME280;1347;42.122;24.746;2022-10-31T00:02:41;99816.03;;;16.42;56.59
2675;BME280;1347;42.122;24.746;2022-10-31T00:05:09;99821.16;;;16.47;56.83
2675;BME280;1347;42.122;24.746;2022-10-31T00:07:36;99814.81;;;16.50;56.63
2675;BME280;1347;42.122;24.746;2022-10-31T00:10:04;99816.78;;;16.56;56.59
2675;BME280;1347;42.122;24.746;2022-10-31T00:12:31;99807.28;;;16.65;56.23
2675;BME280;1347;42.122;24.746;2022-10-31T00:14:58;99802.91;;;16.67;56.36
2675;BME280;1347;42.122;24.746;2022-10-31T00:17:25;99809.19;;;16.75;56.23
2675;BME280;1347;42.122;24.746;2022-10-31T00:19:52;99810.31;;;16.84;55.60
2675;BME280;1347;42.122;24.746;2022-10-31T00:22:20;99805.53;;;16.92;55.91
2675;BME280;1347;42.122;24.746;2022-10-31T00:24:47;99809.84;;;16.97;55.70
2675;BME280;1347;42.122;24.746;2022-10-31T00:27:14;99808.28;;;16.99;55.34
2675;BME280;1347;42.122;24.746;2022-10-31T00:29:41;99801.50;;;17.00;55.59
2675;BME280;1347;42.122;24.746;2022-10-31T00:32:07;99812.13;;;17.12;55.16
2675;BME280;1347;42.122;24.746;2022-10-31T00:34:34;99810.88;;;17.20;55.18
2675;BME280;1347;42.122;24.746;2022-10-31T00:37:01;99814.00;;;17.26;55.21
2675;BME280;1347;42.122;24.746;2022-10-31T00:39:29;99823.09;;;17.30;55.05
2675;BME280;1347;42.122;24.746;2022-10-31T00:41:56;99817.09;;;17.35;54.61
2675;BME280;1347;42.122;24.746;2022-10-31T00:44:23;99819.84;;;17.39;54.57
2675;BME280;1347;42.122;24.746;2022-10-31T00:46:50;99821.44;;;17.40;54.65
2675;BME280;1347;42.122;24.746;2022-10-31T00:49:17;99821.03;;;17.38;54.64
2675;BME280;1347;42.122;24.746;2022-10-31T00:51:44;99823.38;;;17.43;54.85
2675;BME280;1347;42.122;24.746;2022-10-31T00:54:10;99819.78;;;17.46;54.15
2675;BME280;1347;42.122;24.746;2022-10-31T00:56:39;99816.94;;;17.53;54.36
2675;BME280;1347;42.122;24.746;2022-10-31T00:59:06;99804.66;;;17.57;54.41
2675;BME280;1347;42.122;24.746;2022-10-31T01:01:32;99822.03;;;17.65;54.02
2675;BME280;1347;42.122;24.746;2022-10-31T01:03:59;99805.69;;;17.78;53.43
2675;BME280;1347;42.122;24.746;2022-10-31T01:06:26;99804.00;;;17.87;53.49
2675;BME280;1347;42.122;24.746;2022-10-31T01:08:53;99803.53;;;17.92;53.65
2675;BME280;1347;42.122;24.746;2022-10-31T01:11:21;99794.41;;;17.92;53.72
2675;BME280;1347;42.122;24.746;2022-10-31T01:13:52;99797.47;;;18.05;53.08
2675;BME280;1347;42.122;24.746;2022-10-31T01:16:20;99801.78;;;18.09;52.87
2675;BME280;1347;42.122;24.746;2022-10-31T01:18:48;99799.41;;;18.11;53.04
2675;BME280;1347;42.122;24.746;2022-10-31T01:21:17;99800.94;;;18.12;52.75
2675;BME280;1347;42.122;24.746;2022-10-31T01:23:44;99796.84;;;18.24;52.38
2675;BME280;1347;42.122;24.746;2022-10-31T01:26:12;99797.25;;;18.22;52.35
2675;BME280;1347;42.122;24.746;2022-10-31T01:28:44;99798.78;;;18.30;52.13
2675;BME280;1347;42.122;24.746;2022-10-31T01:31:13;99797.09;;;18.36;52.00
2675;BME280;1347;42.122;24.746;2022-10-31T01:33:41;99795.88;;;18.41;51.75
2675;BME280;1347;42.122;24.746;2022-10-31T01:36:14;99793.41;;;18.47;51.99
2675;BME280;1347;42.122;24.746;2022-10-31T01:38:41;99790.59;;;18.50;51.75
2675;BME280;1347;42.122;24.746;2022-10-31T01:41:10;99784.25;;;18.50;51.77
2675;BME280;1347;42.122;24.746;2022-10-31T01:43:45;99792.47;;;18.60;51.26
2675;BME280;1347;42.122;24.746;2022-10-31T01:46:16;99794.84;;;18.62;51.25
2675;BME280;1347;42.122;24.746;2022-10-31T01:48:44;99787.22;;;18.66;51.09
2675;BME280;1347;42.122;24.746;2022-10-31T01:51:13;99799.91;;;18.67;51.14
2675;BME280;1347;42.122;24.746;2022-10-31T01:53:42;99797.88;;;18.71;50.77
2675;BME280;1347;42.122;24.746;2022-10-31T01:56:11;99805.34;;;18.74;50.79
2675;BME280;1347;42.122;24.746;2022-10-31T01:58:40;99802.50;;;18.81;51.03
2675;BME280;1347;42.122;24.746;2022-10-31T02:01:07;99795.31;;;18.84;50.32
2675;BME280;1347;42.122;24.746;2022-10-31T02:03:35;99792.53;;;18.84;50.61
2675;BME280;1347;42.122;24.746;2022-10-31T02:06:03;99798.41;;;18.89;49.98
2675;BME280;1347;42.122;24.746;2022-10-31T02:08:34;99788.50;;;18.88;50.08
2675;BME280;1347;42.122;24.746;2022-10-31T02:11:02;99792.44;;;18.91;49.85
2675;BME280;1347;42.122;24.746;2022-10-31T02:13:29;99787.59;;;18.95;49.83
2675;BME280;1347;42.122;24.746;2022-10-31T02:15:58;99785.63;;;18.95;50.10
2675;BME280;1347;42.122;24.746;2022-10-31T02:18:27;99782.16;;;18.88;49.88
2675;BME280;1347;42.122;24.746;2022-10-31T02:21:03;99788.91;;;18.87;49.95
2675;BME280;1347;42.122;24.746;2022-10-31T02:24:15;99779.81;;;18.86;49.88
2675;BME280;1347;42.122;24.746;2022-10-31T02:26:57;99756.00;;;18.85;49.60
2675;BME280;1347;42.122;24.746;2022-10-31T02:29:59;99779.91;;;18.79;50.76
2675;BME280;1347;42.122;24.746;2022-10-31T02:32:38;99772.66;;;18.85;49.82
2675;BME280;1347;42.122;24.746;2022-10-31T02:35:12;99778.19;;;18.89;50.00
2675;BME280;1347;42.122;24.746;2022-10-31T02:37:48;99773.41;;;18.89;50.20
2675;BME280;1347;42.122;24.746;2022-10-31T02:40:21;99773.78;;;18.91;50.03
2675;BME280;1347;42.122;24.746;2022-10-31T02:42:56;99784.00;;;18.98;49.62
2675;BME280;1347;42.122;24.746;2022-10-31T02:45:30;99767.69;;;19.00;49.55
2675;BME280;1347;42.122;24.746;2022-10-31T02:48:04;99787.03;;;19.07;49.59
2675;BME280;1347;42.122;24.746;2022-10-31T02:50:37;99783.00;;;19.11;49.40
2675;BME280;1347;42.122;24.746;2022-10-31T02:53:06;99794.03;;;19.15;49.38
2675;BME280;1347;42.122;24.746;2022-10-31T02:55:47;99792.84;;;19.16;49.24
2675;BME280;1347;42.122;24.746;2022-10-31T02:58:19;99802.34;;;19.19;49.27
2675;BME280;1347;42.122;24.746;2022-10-31T03:00:56;99807.47;;;19.20;49.39
2675;BME280;1347;42.122;24.746;2022-10-31T03:03:33;99810.97;;;19.24;49.26
2675;BME280;1347;42.122;24.746;2022-10-31T03:06:06;99814.44;;;19.32;48.83
2675;BME280;1347;42.122;24.746;2022-10-31T03:08:39;99812.50;;;19.29;49.10
2675;BME280;1347;42.122;24.746;2022-10-31T03:11:09;99808.03;;;19.35;48.91
2675;BME280;1347;42.122;24.746;2022-10-31T03:13:41;99815.94;;;19.36;48.91
2675;BME280;1347;42.122;24.746;2022-10-31T03:16:15;99820.69;;;19.39;49.07
2675;BME280;1347;42.122;24.746;2022-10-31T03:18:49;99824.66;;;19.38;48.83
2675;BME280;1347;42.122;24.746;2022-10-31T03:21:21;99821.09;;;19.38;48.78
2675;BME280;1347;42.122;24.746;2022-10-31T03:23:51;99824.53;;;19.45;48.57
2675;BME280;1347;42.122;24.746;2022-10-31T03:26:21;99838.84;;;19.44;48.89
2675;BME280;1347;42.122;24.746;2022-10-31T03:28:50;99832.88;;;19.45;48.83
2675;BME280;1347;42.122;24.746;2022-10-31T03:31:24;99843.97;;;19.49;48.43
2675;BME280;1347;42.122;24.746;2022-10-31T03:33:56;99843.22;;;19.45;49.09
2675;BME280;1347;42.122;24.746;2022-10-31T03:36:26;99850.59;;;19.32;49.14
2675;BME280;1347;42.122;24.746;2022-10-31T03:38:55;99850.84;;;19.41;48.69
2675;BME280;1347;42.122;24.746;2022-10-31T03:41:25;99856.44;;;19.37;49.12
2675;BME280;1347;42.122;24.746;2022-10-31T03:43:59;99852.50;;;19.35;49.02
2675;BME280;1347;42.122;24.746;2022-10-31T03:46:28;99854.09;;;19.36;49.00
2675;BME280;1347;42.122;24.746;2022-10-31T03:48:57;99859.72;;;19.32;49.43
2675;BME280;1347;42.122;24.746;2022-10-31T03:51:27;99861.72;;;19.32;49.07
2675;BME280;1347;42.122;24.746;2022-10-31T03:54:02;99861.34;;;19.30;49.36
2675;BME280;1347;42.122;24.746;2022-10-31T03:56:34;99866.53;;;19.28;49.41
2675;BME280;1347;42.122;24.746;2022-10-31T03:59:04;99865.84;;;19.20;49.42
2675;BME280;1347;42.122;24.746;2022-10-31T04:01:35;99878.06;;;19.26;49.32
2675;BME280;1347;42.122;24.746;2022-10-31T04:04:06;99875.28;;;19.26;49.54
2675;BME280;1347;42.122;24.746;2022-10-31T04:06:34;99870.19;;;19.21;49.95
2675;BME280;1347;42.122;24.746;2022-10-31T04:09:04;99871.97;;;19.08;50.22
2675;BME280;1347;42.122;24.746;2022-10-31T04:11:35;99871.16;;;19.11;49.86
2675;BME280;1347;42.122;24.746;2022-10-31T04:14:04;99875.25;;;18.99;50.11
2675;BME280;1347;42.122;24.746;2022-10-31T04:16:31;99875.69;;;18.98;50.24
2675;BME280;1347;42.122;24.746;2022-10-31T04:18:58;99878.97;;;18.89;50.73
2675;BME280;1347;42.122;24.746;2022-10-31T04:21:30;99881.00;;;18.85;50.27
2675;BME280;1347;42.122;24.746;2022-10-31T04:23:57;99879.91;;;18.79;50.88
2675;BME280;1347;42.122;24.746;2022-10-31T04:26:24;99875.97;;;18.77;50.69
2675;BME280;1347;42.122;24.746;2022-10-31T04:28:51;99878.75;;;18.73;50.77
2675;BME280;1347;42.122;24.746;2022-10-31T04:31:18;99887.16;;;18.69;51.17
2675;BME280;1347;42.122;24.746;2022-10-31T04:33:45;99889.97;;;18.66;51.14
2675;BME280;1347;42.122;24.746;2022-10-31T04:36:12;99885.25;;;18.63;51.21
2675;BME280;1347;42.122;24.746;2022-10-31T04:38:41;99880.56;;;18.53;51.19
2675;BME280;1347;42.122;24.746;2022-10-31T04:41:07;99885.38;;;18.52;51.49
2675;BME280;1347;42.122;24.746;2022-10-31T04:43:34;99890.25;;;18.41;52.17
2675;BME280;1347;42.122;24.746;2022-10-31T04:46:01;99891.38;;;18.44;51.86
2675;BME280;1347;42.122;24.746;2022-10-31T04:48:28;99881.47;;;18.43;52.20
2675;BME280;1347;42.122;24.746;2022-10-31T04:50:58;99898.97;;;18.39;52.09
2675;BME280;1347;42.122;24.746;2022-10-31T04:53:26;99902.47;;;18.44;51.53
2675;BME280;1347;42.122;24.746;2022-10-31T04:55:54;99923.56;;;18.41;51.75
2675;BME280;1347;42.122;24.746;2022-10-31T04:58:21;99919.56;;;18.42;51.83
2675;BME280;1347;42.122;24.746;2022-10-31T05:00:51;99915.97;;;18.45;52.08
2675;BME280;1347;42.122;24.746;2022-10-31T05:03:18;99923.50;;;18.45;52.16
2675;BME280;1347;42.122;24.746;2022-10-31T05:05:45;99919.56;;;18.42;52.12
2675;BME280;1347;42.122;24.746;2022-10-31T05:08:12;99925.47;;;18.44;52.10
2675;BME280;1347;42.122;24.746;2022-10-31T05:10:39;99923.09;;;18.46;52.27
2675;BME280;1347;42.122;24.746;2022-10-31T05:13:07;99922.28;;;18.49;52.16
2675;BME280;1347;42.122;24.746;2022-10-31T05:15:34;99926.66;;;18.47;51.84
2675;BME280;1347;42.122;24.746;2022-10-31T05:18:01;99930.63;;;18.46;52.37
2675;BME280;1347;42.122;24.746;2022-10-31T05:20:29;99939.75;;;18.46;52.39
2675;BME280;1347;42.122;24.746;2022-10-31T05:22:57;99930.53;;;18.53;52.35
2675;BME280;1347;42.122;24.746;2022-10-31T05:25:26;99939.25;;;18.55;52.67
2675;BME280;1347;42.122;24.746;2022-10-31T05:27:55;99949.94;;;18.56;52.20
2675;BME280;1347;42.122;24.746;2022-10-31T05:30:25;99950.69;;;18.64;52.20
2675;BME280;1347;42.122;24.746;2022-10-31T05:32:53;99943.13;;;18.68;52.14
2675;BME280;1347;42.122;24.746;2022-10-31T05:35:22;99938.66;;;18.74;52.11
2675;BME280;1347;42.122;24.746;2022-10-31T05:37:49;99945.41;;;18.73;52.30
2675;BME280;1347;42.122;24.746;2022-10-31T05:40:17;99955.28;;;18.81;51.96
2675;BME280;1347;42.122;24.746;2022-10-31T05:42:45;99957.16;;;18.88;51.72
2675;BME280;1347;42.122;24.746;2022-10-31T05:45:13;99969.47;;;18.87;51.96
2675;BME280;1347;42.122;24.746;2022-10-31T05:47:49;99964.22;;;18.96;52.08
2675;BME280;1347;42.122;24.746;2022-10-31T05:50:16;99965.38;;;18.98;51.61
2675;BME280;1347;42.122;24.746;2022-10-31T05:52:43;99966.06;;;19.06;51.97
2675;BME280;1347;42.122;24.746;2022-10-31T05:55:10;99964.84;;;19.10;51.49
2675;BME280;1347;42.122;24.746;2022-10-31T05:57:37;99968.31;;;19.18;51.42
2675;BME280;1347;42.122;24.746;2022-10-31T06:00:05;99976.69;;;19.15;51.52
2675;BME280;1347;42.122;24.746;2022-10-31T06:02:32;99973.81;;;19.22;51.44
2675;BME280;1347;42.122;24.746;2022-10-31T06:05:01;99986.38;;;19.33;51.22
2675;BME280;1347;42.122;24.746;2022-10-31T06:07:32;99982.34;;;19.38;51.38
2675;BME280;1347;42.122;24.746;2022-10-31T06:09:59;99992.94;;;19.50;51.16
2675;BME280;1347;42.122;24.746;2022-10-31T06:12:26;99998.72;;;19.63;50.44
2675;BME280;1347;42.122;24.746;2022-10-31T06:14:53;99992.75;;;19.64;50.98
2675;BME280;1347;42.122;24.746;2022-10-31T06:17:20;99998.91;;;19.75;50.72
2675;BME280;1347;42.122;24.746;2022-10-31T06:19:47;99998.41;;;19.84;50.43
2675;BME280;1347;42.122;24.746;2022-10-31T06:22:16;100004.31;;;19.86;50.43
2675;BME280;1347;42.122;24.746;2022-10-31T06:24:42;100001.53;;;19.86;50.61
2675;BME280;1347;42.122;24.746;2022-10-31T06:27:09;100004.03;;;19.80;50.56
2675;BME280;1347;42.122;24.746;2022-10-31T06:29:36;100003.53;;;19.85;50.36
2675;BME280;1347;42.122;24.746;2022-10-31T06:32:03;100013.00;;;19.92;50.19
2675;BME280;1347;42.122;24.746;2022-10-31T06:34:30;100010.41;;;20.04;50.15
2675;BME280;1347;42.122;24.746;2022-10-31T06:36:57;100012.53;;;20.20;49.96
2675;BME280;1347;42.122;24.746;2022-10-31T06:39:25;100011.47;;;20.37;49.69
2675;BME280;1347;42.122;24.746;2022-10-31T06:41:52;100010.75;;;20.56;49.20
2675;BME280;1347;42.122;24.746;2022-10-31T06:44:19;100018.50;;;20.69;48.90
2675;BME280;1347;42.122;24.746;2022-10-31T06:46:46;100016.72;;;20.78;48.73
2675;BME280;1347;42.122;24.746;2022-10-31T06:49:14;100024.03;;;20.92;48.86
2675;BME280;1347;42.122;24.746;2022-10-31T06:51:41;100017.19;;;21.16;47.66
2675;BME280;1347;42.122;24.746;2022-10-31T06:54:09;100008.66;;;21.63;47.08
2675;BME280;1347;42.122;24.746;2022-10-31T06:56:37;100010.09;;;24.31;43.22
2675;BME280;1347;42.122;24.746;2022-10-31T06:59:04;100016.03;;;26.84;38.16
2675;BME280;1347;42.122;24.746;2022-10-31T07:01:31;100019.47;;;29.28;34.77
2675;BME280;1347;42.122;24.746;2022-10-31T07:03:58;100017.97;;;31.22;32.22
2675;BME280;1347;42.122;24.746;2022-10-31T07:06:25;100025.72;;;31.53;31.09
2675;BME280;1347;42.122;24.746;2022-10-31T07:08:51;100021.84;;;33.27;30.14
2675;BME280;1347;42.122;24.746;2022-10-31T07:11:19;100029.13;;;34.06;28.65
2675;BME280;1347;42.122;24.746;2022-10-31T07:13:47;100027.50;;;34.49;27.80
2675;BME280;1347;42.122;24.746;2022-10-31T07:16:14;100019.28;;;34.01;27.84
2675;BME280;1347;42.122;24.746;2022-10-31T07:18:41;100023.34;;;33.22;29.03
2675;BME280;1347;42.122;24.746;2022-10-31T07:21:08;100019.97;;;32.42;29.60
2675;BME280;1347;42.122;24.746;2022-10-31T07:23:34;100018.38;;;31.15;31.20
2675;BME280;1347;42.122;24.746;2022-10-31T07:26:02;100019.78;;;30.59;32.04
2675;BME280;1347;42.122;24.746;2022-10-31T07:28:29;100018.78;;;30.62;31.77
2675;BME280;1347;42.122;24.746;2022-10-31T07:30:58;100024.19;;;30.45;32.16
2675;BME280;1347;42.122;24.746;2022-10-31T07:33:25;100022.00;;;29.99;32.56
2675;BME280;1347;42.122;24.746;2022-10-31T07:35:52;100021.16;;;30.49;31.78
2675;BME280;1347;42.122;24.746;2022-10-31T07:38:19;100015.81;;;30.71;31.84
2675;BME280;1347;42.122;24.746;2022-10-31T07:40:49;100017.38;;;31.70;30.59
2675;BME280;1347;42.122;24.746;2022-10-31T07:43:17;100014.53;;;31.13;30.96
2675;BME280;1347;42.122;24.746;2022-10-31T07:45:44;100020.00;;;30.20;32.30
2675;BME280;1347;42.122;24.746;2022-10-31T07:48:16;100021.16;;;29.49;32.48
2675;BME280;1347;42.122;24.746;2022-10-31T07:50:43;100012.78;;;28.63;33.39
2675;BME280;1347;42.122;24.746;2022-10-31T07:53:11;100014.25;;;28.59;33.78
2675;BME280;1347;42.122;24.746;2022-10-31T07:55:38;100019.88;;;28.02;35.05
2675;BME280;1347;42.122;24.746;2022-10-31T07:58:07;100018.75;;;28.08;35.08
2675;BME280;1347;42.122;24.746;2022-10-31T08:00:35;100024.53;;;29.97;33.03
2675;BME280;1347;42.122;24.746;2022-10-31T08:03:04;100017.97;;;33.30;28.83
2675;BME280;1347;42.122;24.746;2022-10-31T08:05:34;100029.25;;;35.92;27.24
2675;BME280;1347;42.122;24.746;2022-10-31T08:08:01;100018.88;;;38.59;25.13
2675;BME280;1347;42.122;24.746;2022-10-31T08:10:28;100025.50;;;39.90;23.13
2675;BME280;1347;42.122;24.746;2022-10-31T08:12:56;100026.63;;;39.66;24.00
2675;BME280;1347;42.122;24.746;2022-10-31T08:15:24;100013.78;;;38.39;24.61
2675;BME280;1347;42.122;24.746;2022-10-31T08:17:51;100013.88;;;36.74;25.79
2675;BME280;1347;42.122;24.746;2022-10-31T08:20:18;100020.13;;;35.23;26.86
2675;BME280;1347;42.122;24.746;2022-10-31T08:22:55;100018.91;;;36.13;25.94
2675;BME280;1347;42.122;24.746;2022-10-31T08:25:22;100017.47;;;35.71;26.09
2675;BME280;1347;42.122;24.746;2022-10-31T08:27:50;100022.59;;;37.70;25.48
2675;BME280;1347;42.122;24.746;2022-10-31T08:30:17;100023.94;;;38.67;23.59
2675;BME280;1347;42.122;24.746;2022-10-31T08:32:44;100029.28;;;40.63;23.24
2675;BME280;1347;42.122;24.746;2022-10-31T08:35:11;100025.22;;;42.29;21.82
2675;BME280;1347;42.122;24.746;2022-10-31T08:37:38;100016.75;;;41.32;21.79
2675;BME280;1347;42.122;24.746;2022-10-31T08:40:08;100036.75;;;40.66;22.22
2675;BME280;1347;42.122;24.746;2022-10-31T08:42:36;100012.75;;;40.56;22.31
2675;BME280;1347;42.122;24.746;2022-10-31T08:45:03;100020.97;;;39.74;22.95
2675;BME280;1347;42.122;24.746;2022-10-31T08:47:31;100023.28;;;37.76;23.95
2675;BME280;1347;42.122;24.746;2022-10-31T08:49:57;100020.00;;;37.53;24.76
2675;BME280;1347;42.122;24.746;2022-10-31T08:52:25;100016.00;;;36.19;25.58
2675;BME280;1347;42.122;24.746;2022-10-31T08:54:52;100025.69;;;35.10;26.60
2675;BME280;1347;42.122;24.746;2022-10-31T08:57:20;100019.91;;;35.21;26.30
2675;BME280;1347;42.122;24.746;2022-10-31T08:59:47;100013.28;;;35.42;26.31
2675;BME280;1347;42.122;24.746;2022-10-31T09:02:14;100015.09;;;35.81;26.37
2675;BME280;1347;42.122;24.746;2022-10-31T09:04:40;100022.00;;;36.15;25.46
2675;BME280;1347;42.122;24.746;2022-10-31T09:07:07;100019.50;;;36.55;25.20
2675;BME280;1347;42.122;24.746;2022-10-31T09:09:34;100009.88;;;36.09;25.37
2675;BME280;1347;42.122;24.746;2022-10-31T09:12:01;100018.66;;;36.84;25.46
2675;BME280;1347;42.122;24.746;2022-10-31T09:14:29;100017.03;;;36.65;25.18
2675;BME280;1347;42.122;24.746;2022-10-31T09:16:56;100012.31;;;36.73;25.14
2675;BME280;1347;42.122;24.746;2022-10-31T09:19:23;100021.66;;;36.49;25.06
2675;BME280;1347;42.122;24.746;2022-10-31T09:21:52;100010.03;;;36.23;25.18
2675;BME280;1347;42.122;24.746;2022-10-31T09:24:19;100012.31;;;35.34;26.05
2675;BME280;1347;42.122;24.746;2022-10-31T09:26:46;100013.59;;;33.90;27.37
2675;BME280;1347;42.122;24.746;2022-10-31T09:29:13;100002.22;;;33.40;28.00
2675;BME280;1347;42.122;24.746;2022-10-31T09:31:41;100003.09;;;32.27;29.49
2675;BME280;1347;42.122;24.746;2022-10-31T09:34:08;100008.38;;;32.51;29.08
2675;BME280;1347;42.122;24.746;2022-10-31T09:36:36;100003.19;;;32.07;29.65
2675;BME280;1347;42.122;24.746;2022-10-31T09:39:03;99992.44;;;31.74;29.74
2675;BME280;1347;42.122;24.746;2022-10-31T09:41:48;99998.50;;;31.35;30.77
2675;BME280;1347;42.122;24.746;2022-10-31T09:44:24;99986.44;;;31.66;30.49
2675;BME280;1347;42.122;24.746;2022-10-31T09:46:58;99984.69;;;32.11;30.03
2675;BME280;1347;42.122;24.746;2022-10-31T09:49:36;99996.47;;;32.36;29.45
2675;BME280;1347;42.122;24.746;2022-10-31T09:52:12;99990.13;;;31.78;30.07
2675;BME280;1347;42.122;24.746;2022-10-31T09:54:45;99995.06;;;31.52;29.87
2675;BME280;1347;42.122;24.746;2022-10-31T09:57:15;99996.59;;;31.53;30.32
2675;BME280;1347;42.122;24.746;2022-10-31T09:59:44;99996.78;;;31.18;30.14
2675;BME280;1347;42.122;24.746;2022-10-31T10:02:17;100004.88;;;30.44;31.10
2675;BME280;1347;42.122;24.746;2022-10-31T10:04:51;99998.38;;;30.37;31.04
2675;BME280;1347;42.122;24.746;2022-10-31T10:07:24;99992.72;;;30.37;31.15
2675;BME280;1347;42.122;24.746;2022-10-31T10:09:53;99997.13;;;30.04;31.52
2675;BME280;1347;42.122;24.746;2022-10-31T10:12:33;99987.91;;;29.74;32.42
2675;BME280;1347;42.122;24.746;2022-10-31T10:15:25;99981.41;;;29.09;32.22
2675;BME280;1347;42.122;24.746;2022-10-31T10:18:04;99984.97;;;28.95;33.72
2675;BME280;1347;42.122;24.746;2022-10-31T10:20:40;99975.06;;;29.14;32.65
2675;BME280;1347;42.122;24.746;2022-10-31T10:23:28;99972.34;;;29.19;32.54
2675;BME280;1347;42.122;24.746;2022-10-31T10:26:02;99965.81;;;29.43;32.73
2675;BME280;1347;42.122;24.746;2022-10-31T10:28:34;99968.44;;;29.32;32.65
2675;BME280;1347;42.122;24.746;2022-10-31T10:31:07;99972.16;;;29.08;33.08
2675;BME280;1347;42.122;24.746;2022-10-31T10:33:38;99959.00;;;28.90;33.09
2675;BME280;1347;42.122;24.746;2022-10-31T10:36:10;99962.53;;;28.76;33.25
2675;BME280;1347;42.122;24.746;2022-10-31T10:38:51;99951.75;;;28.51;34.21
2675;BME280;1347;42.122;24.746;2022-10-31T10:41:20;99936.84;;;28.36;33.72
2675;BME280;1347;42.122;24.746;2022-10-31T10:43:49;99945.13;;;28.39;34.14
2675;BME280;1347;42.122;24.746;2022-10-31T10:46:18;99941.97;;;28.13;34.11
2675;BME280;1347;42.122;24.746;2022-10-31T10:49:20;99945.81;;;28.01;34.95
2675;BME280;1347;42.122;24.746;2022-10-31T10:51:57;99944.00;;;28.13;35.19
2675;BME280;1347;42.122;24.746;2022-10-31T10:54:39;99941.81;;;28.41;33.60
2675;BME280;1347;42.122;24.746;2022-10-31T10:57:19;99945.84;;;28.64;33.81
2675;BME280;1347;42.122;24.746;2022-10-31T10:59:48;99934.78;;;28.75;33.35
2675;BME280;1347;42.122;24.746;2022-10-31T11:02:17;99941.13;;;28.70;34.33
2675;BME280;1347;42.122;24.746;2022-10-31T11:04:49;99931.03;;;28.92;33.50
2675;BME280;1347;42.122;24.746;2022-10-31T11:07:17;99933.19;;;29.27;33.19
2675;BME280;1347;42.122;24.746;2022-10-31T11:09:44;99938.84;;;29.56;32.36
2675;BME280;1347;42.122;24.746;2022-10-31T11:12:18;99937.75;;;29.69;32.80
2675;BME280;1347;42.122;24.746;2022-10-31T11:14:48;99931.75;;;29.46;32.88
2675;BME280;1347;42.122;24.746;2022-10-31T11:17:22;99940.19;;;29.32;33.11
2675;BME280;1347;42.122;24.746;2022-10-31T11:20:05;99923.69;;;29.39;32.71
2675;BME280;1347;42.122;24.746;2022-10-31T11:22:33;99923.06;;;29.35;32.71
2675;BME280;1347;42.122;24.746;2022-10-31T11:24:59;99925.31;;;29.31;32.90
2675;BME280;1347;42.122;24.746;2022-10-31T11:27:26;99920.53;;;29.22;32.87
2675;BME280;1347;42.122;24.746;2022-10-31T11:30:04;99924.34;;;29.05;33.15
2675;BME280;1347;42.122;24.746;2022-10-31T11:32:31;99921.00;;;28.91;33.74
2675;BME280;1347;42.122;24.746;2022-10-31T11:35:01;99917.72;;;29.08;32.97
2675;BME280;1347;42.122;24.746;2022-10-31T11:37:32;99920.06;;;29.39;32.90
2675;BME280;1347;42.122;24.746;2022-10-31T11:40:03;99914.91;;;29.72;33.00
2675;BME280;1347;42.122;24.746;2022-10-31T11:42:37;99911.25;;;30.42;31.82
2675;BME280;1347;42.122;24.746;2022-10-31T11:45:14;99908.84;;;30.55;31.83
2675;BME280;1347;42.122;24.746;2022-10-31T11:47:43;99905.66;;;30.47;31.54
2675;BME280;1347;42.122;24.746;2022-10-31T11:50:18;99910.06;;;30.08;32.58
2675;BME280;1347;42.122;24.746;2022-10-31T11:52:47;99899.97;;;29.86;31.78
2675;BME280;1347;42.122;24.746;2022-10-31T11:55:17;99901.50;;;29.67;32.28
2675;BME280;1347;42.122;24.746;2022-10-31T11:57:56;99899.13;;;29.16;32.82
2675;BME280;1347;42.122;24.746;2022-10-31T12:00:24;99900.66;;;29.46;33.70
2675;BME280;1347;42.122;24.746;2022-10-31T12:03:04;99900.28;;;29.24;33.16
2675;BME280;1347;42.122;24.746;2022-10-31T12:05:38;99901.25;;;29.36;33.25
2675;BME280;1347;42.122;24.746;2022-10-31T12:08:09;99902.06;;;30.06;31.93
2675;BME280;1347;42.122;24.746;2022-10-31T12:10:42;99890.91;;;30.84;31.27
2675;BME280;1347;42.122;24.746;2022-10-31T12:13:24;99897.75;;;30.77;31.28
2675;BME280;1347;42.122;24.746;2022-10-31T12:16:00;99894.97;;;30.57;31.45
2675;BME280;1347;42.122;24.746;2022-10-31T12:18:39;99901.00;;;30.24;32.24
2675;BME280;1347;42.122;24.746;2022-10-31T12:21:20;99902.78;;;30.01;32.52
2675;BME280;1347;42.122;24.746;2022-10-31T12:23:58;99897.22;;;29.92;32.70
2675;BME280;1347;42.122;24.746;2022-10-31T12:26:34;99904.00;;;29.80;32.90
2675;BME280;1347;42.122;24.746;2022-10-31T12:29:19;99902.88;;;29.57;32.42
2675;BME280;1347;42.122;24.746;2022-10-31T12:31:58;99896.47;;;29.56;32.79
2675;BME280;1347;42.122;24.746;2022-10-31T12:34:57;99891.25;;;29.20;32.62
2675;BME280;1347;42.122;24.746;2022-10-31T12:37:37;99888.78;;;29.13;33.14
2675;BME280;1347;42.122;24.746;2022-10-31T12:40:21;99895.03;;;29.02;33.98
2675;BME280;1347;42.122;24.746;2022-10-31T12:43:04;99891.72;;;29.04;33.67
2675;BME280;1347;42.122;24.746;2022-10-31T12:45:51;99887.84;;;28.86;33.89
2675;BME280;1347;42.122;24.746;2022-10-31T12:48:46;99893.09;;;28.79;33.81
2675;BME280;1347;42.122;24.746;2022-10-31T12:51:26;99894.50;;;28.74;34.32
2675;BME280;1347;42.122;24.746;2022-10-31T12:54:11;99886.91;;;28.66;33.86
2675;BME280;1347;42.122;24.746;2022-10-31T12:56:50;99890.78;;;28.39;34.93
2675;BME280;1347;42.122;24.746;2022-10-31T12:59:26;99887.53;;;28.31;34.33
2675;BME280;1347;42.122;24.746;2022-10-31T13:01:58;99887.25;;;28.29;34.71
2675;BME280;1347;42.122;24.746;2022-10-31T13:04:36;99888.78;;;28.30;34.55
2675;BME280;1347;42.122;24.746;2022-10-31T13:07:09;99890.13;;;28.20;34.98
2675;BME280;1347;42.122;24.746;2022-10-31T13:09:40;99894.50;;;28.21;34.87
2675;BME280;1347;42.122;24.746;2022-10-31T13:12:13;99889.19;;;28.14;34.83
2675;BME280;1347;42.122;24.746;2022-10-31T13:14:43;99880.03;;;28.04;35.24
2675;BME280;1347;42.122;24.746;2022-10-31T13:17:24;99887.63;;;27.89;35.15
2675;BME280;1347;42.122;24.746;2022-10-31T13:19:59;99886.28;;;27.84;36.04
2675;BME280;1347;42.122;24.746;2022-10-31T13:22:31;99884.66;;;27.93;35.26
2675;BME280;1347;42.122;24.746;2022-10-31T13:25:09;99880.41;;;27.97;35.12